sensor_id;sensor_type;location;lat;lon;timestamp;temperature;humidity
19924;DHT22;10124;53.068;18.224;2022-09-09T00:06:42;13.20;1.00
19924;DHT22;10124;53.068;18.224;2022-09-09T00:09:14;13.20;1.00
19924;DHT22;10124;53.068;18.224;2022-09-09T00:17:12;13.10;1.00
19924;DHT22;10124;53.068;18.224;2022-09-09T00:22:57;13.00;1.00
19924;DHT22;10124;53.068;18.224;2022-09-09T00:36:41;12.90;1.00
19924;DHT22;10124;53.068;18.224;2022-09-09T00:39:19;12.90;1.00
19924;DHT22;10124;53.068;18.224;2022-09-09T00:42:17;12.90;1.00
19924;DHT22;10124;53.068;18.224;2022-09-09T00:47:43;12.90;1.00
19924;DHT22;10124;53.068;18.224;2022-09-09T00:55:54;13.70;99.90
19924;DHT22;10124;53.068;18.224;2022-09-09T01:01:12;13.00;99.90
19924;DHT22;10124;53.068;18.224;2022-09-09T01:03:52;13.00;99.90
19924;DHT22;10124;53.068;18.224;2022-09-09T01:06:30;13.00;99.90
19924;DHT22;10124;53.068;18.224;2022-09-09T01:14:50;13.00;99.90
19924;DHT22;10124;53.068;18.224;2022-09-09T01:17:32;13.50;99.90
19924;DHT22;10124;53.068;18.224;2022-09-09T01:20:14;13.40;99.90
19924;DHT22;10124;53.068;18.224;2022-09-09T01:31:40;12.90;99.90
19924;DHT22;10124;53.068;18.224;2022-09-09T01:34:13;12.80;99.90
19924;DHT22;10124;53.068;18.224;2022-09-09T01:37:06;12.70;99.90
19924;DHT22;10124;53.068;18.224;2022-09-09T01:39:36;13.20;99.90
19924;DHT22;10124;53.068;18.224;2022-09-09T01:42:10;12.80;99.90
19924;DHT22;10124;53.068;18.224;2022-09-09T01:47:08;12.80;99.90
19924;DHT22;10124;53.068;18.224;2022-09-09T01:49:52;12.70;99.90
19924;DHT22;10124;53.068;18.224;2022-09-09T01:52:23;12.80;99.90
19924;DHT22;10124;53.068;18.224;2022-09-09T01:57:48;12.80;99.90
19924;DHT22;10124;53.068;18.224;2022-09-09T02:05:44;12.80;99.90
19924;DHT22;10124;53.068;18.224;2022-09-09T02:08:24;12.80;99.90
19924;DHT22;10124;53.068;18.224;2022-09-09T02:11:11;12.90;99.90
19924;DHT22;10124;53.068;18.224;2022-09-09T02:13:53;12.80;1.00
19924;DHT22;10124;53.068;18.224;2022-09-09T02:21:42;12.90;1.00
19924;DHT22;10124;53.068;18.224;2022-09-09T02:24:13;12.90;1.00
19924;DHT22;10124;53.068;18.224;2022-09-09T02:26:50;12.90;1.00
19924;DHT22;10124;53.068;18.224;2022-09-09T02:29:33;13.10;1.00
19924;DHT22;10124;53.068;18.224;2022-09-09T02:32:06;12.90;1.00
19924;DHT22;10124;53.068;18.224;2022-09-09T02:34:43;12.90;1.00
19924;DHT22;10124;53.068;18.224;2022-09-09T02:37:13;12.80;1.00
19924;DHT22;10124;53.068;18.224;2022-09-09T02:52:30;12.90;1.00
19924;DHT22;10124;53.068;18.224;2022-09-09T02:55:09;13.60;1.00
19924;DHT22;10124;53.068;18.224;2022-09-09T02:57:40;12.90;1.00
19924;DHT22;10124;53.068;18.224;2022-09-09T03:00:09;12.90;1.00
19924;DHT22;10124;53.068;18.224;2022-09-09T03:15:00;12.50;1.00
19924;DHT22;10124;53.068;18.224;2022-09-09T03:19:57;12.90;1.00
19924;DHT22;10124;53.068;18.224;2022-09-09T03:27:23;12.90;1.00
19924;DHT22;10124;53.068;18.224;2022-09-09T03:29:52;14.00;1.00
19924;DHT22;10124;53.068;18.224;2022-09-09T03:34:54;13.00;1.00
19924;DHT22;10124;53.068;18.224;2022-09-09T03:39:51;13.70;1.00
19924;DHT22;10124;53.068;18.224;2022-09-09T03:42:22;13.00;1.00
19924;DHT22;10124;53.068;18.224;2022-09-09T03:44:52;12.60;1.00
19924;DHT22;10124;53.068;18.224;2022-09-09T03:52:23;13.00;1.00
19924;DHT22;10124;53.068;18.224;2022-09-09T04:04:47;12.90;1.00
19924;DHT22;10124;53.068;18.224;2022-09-09T04:12:13;12.80;1.00
19924;DHT22;10124;53.068;18.224;2022-09-09T04:14:41;12.80;1.00
19924;DHT22;10124;53.068;18.224;2022-09-09T04:34:29;13.00;1.00
19924;DHT22;10124;53.068;18.224;2022-09-09T04:44:26;12.70;1.00
19924;DHT22;10124;53.068;18.224;2022-09-09T04:46:54;12.80;1.00
19924;DHT22;10124;53.068;18.224;2022-09-09T04:49:21;13.40;1.00
19924;DHT22;10124;53.068;18.224;2022-09-09T04:51:49;12.80;1.00
19924;DHT22;10124;53.068;18.224;2022-09-09T04:54:17;13.10;1.00
19924;DHT22;10124;53.068;18.224;2022-09-09T04:59:14;12.60;1.00
19924;DHT22;10124;53.068;18.224;2022-09-09T05:01:45;12.30;1.00
19924;DHT22;10124;53.068;18.224;2022-09-09T05:04:14;12.90;1.00
19924;DHT22;10124;53.068;18.224;2022-09-09T05:06:44;12.90;1.00
19924;DHT22;10124;53.068;18.224;2022-09-09T05:09:13;13.40;1.00
19924;DHT22;10124;53.068;18.224;2022-09-09T05:19:23;12.80;1.00
19924;DHT22;10124;53.068;18.224;2022-09-09T05:21:53;13.00;1.00
19924;DHT22;10124;53.068;18.224;2022-09-09T05:24:28;13.50;1.00
19924;DHT22;10124;53.068;18.224;2022-09-09T05:29:29;13.00;1.00
19924;DHT22;10124;53.068;18.224;2022-09-09T05:34:25;13.40;1.00
19924;DHT22;10124;53.068;18.224;2022-09-09T05:36:53;13.40;1.00
19924;DHT22;10124;53.068;18.224;2022-09-09T05:41:51;12.60;1.00
19924;DHT22;10124;53.068;18.224;2022-09-09T05:59:19;13.30;1.00
19924;DHT22;10124;53.068;18.224;2022-09-09T06:06:52;13.30;1.00
19924;DHT22;10124;53.068;18.224;2022-09-09T06:11:50;13.40;1.00
19924;DHT22;10124;53.068;18.224;2022-09-09T06:14:21;13.90;1.00
19924;DHT22;10124;53.068;18.224;2022-09-09T06:16:51;12.90;1.00
19924;DHT22;10124;53.068;18.224;2022-09-09T06:19:22;13.90;1.00
19924;DHT22;10124;53.068;18.224;2022-09-09T06:21:57;13.50;1.00
19924;DHT22;10124;53.068;18.224;2022-09-09T06:24:26;14.10;1.00
19924;DHT22;10124;53.068;18.224;2022-09-09T06:26:54;13.50;1.00
19924;DHT22;10124;53.068;18.224;2022-09-09T06:29:26;14.40;1.00
19924;DHT22;10124;53.068;18.224;2022-09-09T06:31:54;13.90;1.00
19924;DHT22;10124;53.068;18.224;2022-09-09T06:34:24;13.80;1.00
19924;DHT22;10124;53.068;18.224;2022-09-09T06:36:57;13.80;1.00
19924;DHT22;10124;53.068;18.224;2022-09-09T06:39:31;13.60;1.00
19924;DHT22;10124;53.068;18.224;2022-09-09T06:41:59;14.20;1.00
19924;DHT22;10124;53.068;18.224;2022-09-09T06:44:45;13.40;1.00
19924;DHT22;10124;53.068;18.224;2022-09-09T06:47:21;13.90;1.00
19924;DHT22;10124;53.068;18.224;2022-09-09T06:49:50;13.00;1.00
19924;DHT22;10124;53.068;18.224;2022-09-09T06:52:18;13.50;1.00
19924;DHT22;10124;53.068;18.224;2022-09-09T06:54:47;13.20;1.00
19924;DHT22;10124;53.068;18.224;2022-09-09T06:57:16;13.50;1.00
19924;DHT22;10124;53.068;18.224;2022-09-09T07:00:08;13.70;1.00
19924;DHT22;10124;53.068;18.224;2022-09-09T07:02:37;13.40;1.00
19924;DHT22;10124;53.068;18.224;2022-09-09T07:05:08;13.70;1.00
19924;DHT22;10124;53.068;18.224;2022-09-09T07:07:37;13.60;1.00
19924;DHT22;10124;53.068;18.224;2022-09-09T07:10:05;14.30;1.00
19924;DHT22;10124;53.068;18.224;2022-09-09T07:12:34;13.70;1.00
19924;DHT22;10124;53.068;18.224;2022-09-09T07:15:02;14.60;1.00
19924;DHT22;10124;53.068;18.224;2022-09-09T07:17:30;13.40;1.00
19924;DHT22;10124;53.068;18.224;2022-09-09T07:20:01;13.80;1.00
19924;DHT22;10124;53.068;18.224;2022-09-09T07:22:30;14.10;1.00
19924;DHT22;10124;53.068;18.224;2022-09-09T07:24:58;14.60;1.00
19924;DHT22;10124;53.068;18.224;2022-09-09T07:27:26;14.00;1.00
19924;DHT22;10124;53.068;18.224;2022-09-09T07:29:54;14.90;1.00
19924;DHT22;10124;53.068;18.224;2022-09-09T07:32:21;14.30;1.00
19924;DHT22;10124;53.068;18.224;2022-09-09T07:34:49;13.80;1.00
19924;DHT22;10124;53.068;18.224;2022-09-09T07:37:18;14.00;1.00
19924;DHT22;10124;53.068;18.224;2022-09-09T07:39:47;14.50;1.00
19924;DHT22;10124;53.068;18.224;2022-09-09T07:42:17;14.20;1.00
19924;DHT22;10124;53.068;18.224;2022-09-09T07:44:45;14.00;1.00
19924;DHT22;10124;53.068;18.224;2022-09-09T07:49:49;14.60;1.00
19924;DHT22;10124;53.068;18.224;2022-09-09T07:52:22;14.60;1.00
19924;DHT22;10124;53.068;18.224;2022-09-09T07:54:55;14.30;1.00
19924;DHT22;10124;53.068;18.224;2022-09-09T07:57:24;14.40;1.00
19924;DHT22;10124;53.068;18.224;2022-09-09T07:59:53;15.20;1.00
19924;DHT22;10124;53.068;18.224;2022-09-09T08:02:21;14.50;1.00
19924;DHT22;10124;53.068;18.224;2022-09-09T08:04:50;15.30;1.00
19924;DHT22;10124;53.068;18.224;2022-09-09T08:07:19;14.50;1.00
19924;DHT22;10124;53.068;18.224;2022-09-09T08:09:53;14.90;1.00
19924;DHT22;10124;53.068;18.224;2022-09-09T08:12:27;14.80;1.00
19924;DHT22;10124;53.068;18.224;2022-09-09T08:14:57;15.20;1.00
19924;DHT22;10124;53.068;18.224;2022-09-09T08:17:29;15.80;1.00
19924;DHT22;10124;53.068;18.224;2022-09-09T08:20:00;14.40;1.00
19924;DHT22;10124;53.068;18.224;2022-09-09T08:22:34;14.70;1.00
19924;DHT22;10124;53.068;18.224;2022-09-09T08:25:06;14.90;1.00
19924;DHT22;10124;53.068;18.224;2022-09-09T08:27:37;15.20;1.00
19924;DHT22;10124;53.068;18.224;2022-09-09T08:30:06;14.60;1.00
19924;DHT22;10124;53.068;18.224;2022-09-09T08:32:35;14.60;1.00
19924;DHT22;10124;53.068;18.224;2022-09-09T08:35:07;15.50;1.00
19924;DHT22;10124;53.068;18.224;2022-09-09T08:37:35;15.30;1.00
19924;DHT22;10124;53.068;18.224;2022-09-09T08:40:05;15.50;1.00
19924;DHT22;10124;53.068;18.224;2022-09-09T08:42:48;15.70;1.00
19924;DHT22;10124;53.068;18.224;2022-09-09T08:45:33;14.60;1.00
19924;DHT22;10124;53.068;18.224;2022-09-09T08:50:45;15.50;1.00
19924;DHT22;10124;53.068;18.224;2022-09-09T08:53:27;15.20;1.00
19924;DHT22;10124;53.068;18.224;2022-09-09T08:56:04;15.90;1.00
19924;DHT22;10124;53.068;18.224;2022-09-09T08:58:52;15.40;1.00
19924;DHT22;10124;53.068;18.224;2022-09-09T09:01:41;15.40;1.00
19924;DHT22;10124;53.068;18.224;2022-09-09T09:04:38;15.60;1.00
19924;DHT22;10124;53.068;18.224;2022-09-09T09:07:18;16.10;1.00
19924;DHT22;10124;53.068;18.224;2022-09-09T09:12:31;15.70;99.90
19924;DHT22;10124;53.068;18.224;2022-09-09T09:15:01;15.70;99.90
19924;DHT22;10124;53.068;18.224;2022-09-09T09:17:37;16.60;1.00
19924;DHT22;10124;53.068;18.224;2022-09-09T09:20:12;15.20;1.00
19924;DHT22;10124;53.068;18.224;2022-09-09T09:22:50;15.50;1.00
19924;DHT22;10124;53.068;18.224;2022-09-09T09:25:23;15.90;1.00
19924;DHT22;10124;53.068;18.224;2022-09-09T09:28:07;16.00;1.00
19924;DHT22;10124;53.068;18.224;2022-09-09T09:31:06;16.60;1.00
19924;DHT22;10124;53.068;18.224;2022-09-09T09:33:55;16.20;1.00
19924;DHT22;10124;53.068;18.224;2022-09-09T09:39:26;16.80;1.00
19924;DHT22;10124;53.068;18.224;2022-09-09T09:42:17;16.40;99.90
19924;DHT22;10124;53.068;18.224;2022-09-09T09:44:49;15.70;1.00
19924;DHT22;10124;53.068;18.224;2022-09-09T09:47:22;16.30;1.00
19924;DHT22;10124;53.068;18.224;2022-09-09T09:50:00;16.30;99.90
19924;DHT22;10124;53.068;18.224;2022-09-09T09:52:35;16.40;99.90
19924;DHT22;10124;53.068;18.224;2022-09-09T09:55:13;16.10;1.00
19924;DHT22;10124;53.068;18.224;2022-09-09T10:00:17;17.10;1.00
19924;DHT22;10124;53.068;18.224;2022-09-09T10:02:52;16.70;99.90
19924;DHT22;10124;53.068;18.224;2022-09-09T10:05:26;17.10;99.90
19924;DHT22;10124;53.068;18.224;2022-09-09T10:08:15;17.00;99.90
19924;DHT22;10124;53.068;18.224;2022-09-09T10:11:02;16.90;99.90
19924;DHT22;10124;53.068;18.224;2022-09-09T10:16:50;16.90;99.90
19924;DHT22;10124;53.068;18.224;2022-09-09T10:19:30;16.40;1.00
19924;DHT22;10124;53.068;18.224;2022-09-09T10:30:06;16.60;99.90
19924;DHT22;10124;53.068;18.224;2022-09-09T10:32:41;17.30;99.90
19924;DHT22;10124;53.068;18.224;2022-09-09T10:35:35;17.30;99.90
19924;DHT22;10124;53.068;18.224;2022-09-09T10:46:34;18.00;99.90
19924;DHT22;10124;53.068;18.224;2022-09-09T10:59:54;18.40;99.90
19924;DHT22;10124;53.068;18.224;2022-09-09T11:02:29;17.60;99.90
19924;DHT22;10124;53.068;18.224;2022-09-09T11:05:02;17.40;99.90
19924;DHT22;10124;53.068;18.224;2022-09-09T11:07:44;18.20;1.00
19924;DHT22;10124;53.068;18.224;2022-09-09T11:12:49;18.70;56.90
19924;DHT22;10124;53.068;18.224;2022-09-09T11:15:51;18.60;21.10
19924;DHT22;10124;53.068;18.224;2022-09-09T11:18:20;19.70;19.00
19924;DHT22;10124;53.068;18.224;2022-09-09T11:20:57;19.70;1.00
19924;DHT22;10124;53.068;18.224;2022-09-09T11:23:41;19.90;1.00
19924;DHT22;10124;53.068;18.224;2022-09-09T11:26:27;19.40;1.00
19924;DHT22;10124;53.068;18.224;2022-09-09T11:32:09;19.60;1.00
19924;DHT22;10124;53.068;18.224;2022-09-09T11:34:54;19.30;1.00
19924;DHT22;10124;53.068;18.224;2022-09-09T11:40:21;19.70;1.00
19924;DHT22;10124;53.068;18.224;2022-09-09T11:43:23;19.30;1.00
19924;DHT22;10124;53.068;18.224;2022-09-09T11:45:54;19.10;45.10
19924;DHT22;10124;53.068;18.224;2022-09-09T11:48:39;19.30;1.00
19924;DHT22;10124;53.068;18.224;2022-09-09T11:51:13;18.70;23.20
19924;DHT22;10124;53.068;18.224;2022-09-09T11:53:55;19.00;99.90
19924;DHT22;10124;53.068;18.224;2022-09-09T11:59:06;18.80;1.00
19924;DHT22;10124;53.068;18.224;2022-09-09T12:01:36;18.90;1.00
19924;DHT22;10124;53.068;18.224;2022-09-09T12:04:26;19.30;1.00
19924;DHT22;10124;53.068;18.224;2022-09-09T12:06:59;19.80;1.00
19924;DHT22;10124;53.068;18.224;2022-09-09T12:17:20;21.50;1.00
19924;DHT22;10124;53.068;18.224;2022-09-09T12:20:22;22.30;1.00
19924;DHT22;10124;53.068;18.224;2022-09-09T12:33:46;25.90;1.00
19924;DHT22;10124;53.068;18.224;2022-09-09T12:36:25;25.60;1.00
19924;DHT22;10124;53.068;18.224;2022-09-09T12:38:57;25.40;1.00
19924;DHT22;10124;53.068;18.224;2022-09-09T12:41:27;24.70;1.00
19924;DHT22;10124;53.068;18.224;2022-09-09T12:44:08;24.30;1.00
19924;DHT22;10124;53.068;18.224;2022-09-09T12:46:39;23.30;1.00
19924;DHT22;10124;53.068;18.224;2022-09-09T12:49:34;22.50;1.00
19924;DHT22;10124;53.068;18.224;2022-09-09T12:52:28;22.50;1.00
19924;DHT22;10124;53.068;18.224;2022-09-09T12:54:58;23.20;1.00
19924;DHT22;10124;53.068;18.224;2022-09-09T12:57:34;23.70;1.00
19924;DHT22;10124;53.068;18.224;2022-09-09T13:00:12;24.50;1.00
19924;DHT22;10124;53.068;18.224;2022-09-09T13:02:49;25.60;1.00
19924;DHT22;10124;53.068;18.224;2022-09-09T13:05:28;25.70;1.00
19924;DHT22;10124;53.068;18.224;2022-09-09T13:08:05;26.20;1.00
19924;DHT22;10124;53.068;18.224;2022-09-09T13:13:28;26.70;1.00
19924;DHT22;10124;53.068;18.224;2022-09-09T13:15:58;26.60;1.00
19924;DHT22;10124;53.068;18.224;2022-09-09T13:18:32;26.60;1.00
19924;DHT22;10124;53.068;18.224;2022-09-09T13:21:00;28.30;1.00
19924;DHT22;10124;53.068;18.224;2022-09-09T13:23:30;27.60;1.00
19924;DHT22;10124;53.068;18.224;2022-09-09T13:26:01;27.40;1.00
19924;DHT22;10124;53.068;18.224;2022-09-09T13:28:30;27.40;1.00
19924;DHT22;10124;53.068;18.224;2022-09-09T13:31:05;28.30;1.00
19924;DHT22;10124;53.068;18.224;2022-09-09T13:33:46;26.20;1.00
19924;DHT22;10124;53.068;18.224;2022-09-09T13:36:14;24.50;1.00
19924;DHT22;10124;53.068;18.224;2022-09-09T13:38:56;25.00;1.00
19924;DHT22;10124;53.068;18.224;2022-09-09T13:41:32;26.00;1.00
19924;DHT22;10124;53.068;18.224;2022-09-09T13:44:02;26.30;1.00
19924;DHT22;10124;53.068;18.224;2022-09-09T13:46:38;25.30;1.00
19924;DHT22;10124;53.068;18.224;2022-09-09T13:51:49;26.30;1.00
19924;DHT22;10124;53.068;18.224;2022-09-09T13:54:19;26.90;1.00
19924;DHT22;10124;53.068;18.224;2022-09-09T13:56:47;27.50;1.00
19924;DHT22;10124;53.068;18.224;2022-09-09T13:59:19;27.40;1.00
19924;DHT22;10124;53.068;18.224;2022-09-09T14:01:47;26.90;1.00
19924;DHT22;10124;53.068;18.224;2022-09-09T14:04:17;27.00;1.00
19924;DHT22;10124;53.068;18.224;2022-09-09T14:06:44;26.80;1.00
19924;DHT22;10124;53.068;18.224;2022-09-09T14:09:15;26.60;1.00
19924;DHT22;10124;53.068;18.224;2022-09-09T14:11:44;26.20;1.00
19924;DHT22;10124;53.068;18.224;2022-09-09T14:14:12;25.80;1.00
19924;DHT22;10124;53.068;18.224;2022-09-09T14:16:40;24.90;1.00
19924;DHT22;10124;53.068;18.224;2022-09-09T14:19:09;23.30;1.00
19924;DHT22;10124;53.068;18.224;2022-09-09T14:21:36;23.70;1.00
19924;DHT22;10124;53.068;18.224;2022-09-09T14:24:04;23.50;1.00
19924;DHT22;10124;53.068;18.224;2022-09-09T14:36:26;21.80;1.00
19924;DHT22;10124;53.068;18.224;2022-09-09T14:46:21;20.80;1.00
19924;DHT22;10124;53.068;18.224;2022-09-09T14:48:49;21.30;99.90
19924;DHT22;10124;53.068;18.224;2022-09-09T14:51:19;20.80;1.00
19924;DHT22;10124;53.068;18.224;2022-09-09T14:53:48;20.50;65.30
19924;DHT22;10124;53.068;18.224;2022-09-09T14:56:19;21.00;1.00
19924;DHT22;10124;53.068;18.224;2022-09-09T14:58:49;21.20;1.00
19924;DHT22;10124;53.068;18.224;2022-09-09T15:01:18;21.20;1.00
19924;DHT22;10124;53.068;18.224;2022-09-09T15:04:05;20.90;1.00
19924;DHT22;10124;53.068;18.224;2022-09-09T15:06:35;20.70;1.00
19924;DHT22;10124;53.068;18.224;2022-09-09T15:09:05;20.40;1.00
19924;DHT22;10124;53.068;18.224;2022-09-09T15:11:37;20.60;1.00
19924;DHT22;10124;53.068;18.224;2022-09-09T15:14:08;21.00;99.90
19924;DHT22;10124;53.068;18.224;2022-09-09T15:16:37;20.10;99.90
19924;DHT22;10124;53.068;18.224;2022-09-09T15:19:05;20.60;99.90
19924;DHT22;10124;53.068;18.224;2022-09-09T15:21:35;19.70;99.90
19924;DHT22;10124;53.068;18.224;2022-09-09T15:24:05;19.80;99.90
19924;DHT22;10124;53.068;18.224;2022-09-09T15:31:36;20.10;1.00
19924;DHT22;10124;53.068;18.224;2022-09-09T15:34:05;20.20;99.90
19924;DHT22;10124;53.068;18.224;2022-09-09T15:36:42;19.70;1.00
19924;DHT22;10124;53.068;18.224;2022-09-09T15:39:12;19.70;1.00
19924;DHT22;10124;53.068;18.224;2022-09-09T15:41:48;19.60;1.00
19924;DHT22;10124;53.068;18.224;2022-09-09T15:46:48;19.50;1.00
19924;DHT22;10124;53.068;18.224;2022-09-09T15:49:19;19.60;1.00
19924;DHT22;10124;53.068;18.224;2022-09-09T15:51:52;19.60;1.00
19924;DHT22;10124;53.068;18.224;2022-09-09T15:54:22;19.50;1.00
19924;DHT22;10124;53.068;18.224;2022-09-09T15:56:59;19.30;1.00
19924;DHT22;10124;53.068;18.224;2022-09-09T15:59:30;19.10;99.90
19924;DHT22;10124;53.068;18.224;2022-09-09T16:04:28;19.00;1.00
19924;DHT22;10124;53.068;18.224;2022-09-09T16:07:02;18.90;1.00
19924;DHT22;10124;53.068;18.224;2022-09-09T16:09:31;18.80;1.00
19924;DHT22;10124;53.068;18.224;2022-09-09T16:12:00;18.50;99.90
19924;DHT22;10124;53.068;18.224;2022-09-09T16:17:03;18.60;1.00
19924;DHT22;10124;53.068;18.224;2022-09-09T16:26:55;18.10;99.90
19924;DHT22;10124;53.068;18.224;2022-09-09T16:29:23;18.30;1.00
19924;DHT22;10124;53.068;18.224;2022-09-09T16:31:54;21.40;1.00
19924;DHT22;10124;53.068;18.224;2022-09-09T16:36:57;18.40;99.90
19924;DHT22;10124;53.068;18.224;2022-09-09T16:41:52;17.30;99.90
19924;DHT22;10124;53.068;18.224;2022-09-09T16:44:20;17.70;1.00
19924;DHT22;10124;53.068;18.224;2022-09-09T16:46:48;17.70;99.90
19924;DHT22;10124;53.068;18.224;2022-09-09T16:49:16;17.30;99.90
19924;DHT22;10124;53.068;18.224;2022-09-09T16:51:49;17.20;99.90
19924;DHT22;10124;53.068;18.224;2022-09-09T16:54:17;17.40;99.90
19924;DHT22;10124;53.068;18.224;2022-09-09T16:56:47;17.90;99.90
19924;DHT22;10124;53.068;18.224;2022-09-09T16:59:18;16.70;99.90
19924;DHT22;10124;53.068;18.224;2022-09-09T17:01:48;17.70;99.90
19924;DHT22;10124;53.068;18.224;2022-09-09T17:04:21;17.20;1.00
19924;DHT22;10124;53.068;18.224;2022-09-09T17:06:53;17.00;1.00
19924;DHT22;10124;53.068;18.224;2022-09-09T17:09:22;16.50;1.00
19924;DHT22;10124;53.068;18.224;2022-09-09T17:11:51;16.50;1.00
19924;DHT22;10124;53.068;18.224;2022-09-09T17:14:20;17.30;1.00
19924;DHT22;10124;53.068;18.224;2022-09-09T17:16:48;16.30;1.00
19924;DHT22;10124;53.068;18.224;2022-09-09T17:19:16;16.90;1.00
19924;DHT22;10124;53.068;18.224;2022-09-09T17:21:43;16.60;42.60
19924;DHT22;10124;53.068;18.224;2022-09-09T17:24:34;16.60;29.30
19924;DHT22;10124;53.068;18.224;2022-09-09T17:29:29;16.50;25.00
19924;DHT22;10124;53.068;18.224;2022-09-09T17:31:56;16.30;1.00
19924;DHT22;10124;53.068;18.224;2022-09-09T17:34:25;15.60;1.00
19924;DHT22;10124;53.068;18.224;2022-09-09T17:36:52;16.20;76.30
19924;DHT22;10124;53.068;18.224;2022-09-09T17:39:20;16.20;1.00
19924;DHT22;10124;53.068;18.224;2022-09-09T17:41:48;16.30;1.00
19924;DHT22;10124;53.068;18.224;2022-09-09T17:44:16;15.50;1.00
19924;DHT22;10124;53.068;18.224;2022-09-09T17:46:45;16.00;73.00
19924;DHT22;10124;53.068;18.224;2022-09-09T17:49:16;16.10;1.00
19924;DHT22;10124;53.068;18.224;2022-09-09T17:51:45;15.80;99.90
19924;DHT22;10124;53.068;18.224;2022-09-09T17:54:15;16.30;1.00
19924;DHT22;10124;53.068;18.224;2022-09-09T17:56:45;15.40;1.00
19924;DHT22;10124;53.068;18.224;2022-09-09T17:59:14;15.70;1.00
19924;DHT22;10124;53.068;18.224;2022-09-09T18:01:45;16.10;1.00
19924;DHT22;10124;53.068;18.224;2022-09-09T18:04:15;16.20;1.00
19924;DHT22;10124;53.068;18.224;2022-09-09T18:06:49;16.00;1.00
19924;DHT22;10124;53.068;18.224;2022-09-09T18:09:23;15.10;1.00
19924;DHT22;10124;53.068;18.224;2022-09-09T18:11:54;15.60;99.90
19924;DHT22;10124;53.068;18.224;2022-09-09T18:14:29;15.60;1.00
19924;DHT22;10124;53.068;18.224;2022-09-09T18:16:59;15.90;1.00
19924;DHT22;10124;53.068;18.224;2022-09-09T18:19:30;15.40;99.90
19924;DHT22;10124;53.068;18.224;2022-09-09T18:22:00;15.40;1.00
19924;DHT22;10124;53.068;18.224;2022-09-09T18:24:31;14.70;99.90
19924;DHT22;10124;53.068;18.224;2022-09-09T18:27:00;15.30;1.00
19924;DHT22;10124;53.068;18.224;2022-09-09T18:29:28;15.10;1.00
19924;DHT22;10124;53.068;18.224;2022-09-09T18:31:56;15.70;1.00
19924;DHT22;10124;53.068;18.224;2022-09-09T18:34:25;14.60;1.00
19924;DHT22;10124;53.068;18.224;2022-09-09T18:36:56;15.00;1.00
19924;DHT22;10124;53.068;18.224;2022-09-09T18:39:26;14.90;1.00
19924;DHT22;10124;53.068;18.224;2022-09-09T18:41:56;14.70;1.00
19924;DHT22;10124;53.068;18.224;2022-09-09T18:44:32;15.30;1.00
19924;DHT22;10124;53.068;18.224;2022-09-09T18:47:03;15.40;1.00
19924;DHT22;10124;53.068;18.224;2022-09-09T18:49:34;14.70;99.90
19924;DHT22;10124;53.068;18.224;2022-09-09T18:52:03;14.80;99.90
19924;DHT22;10124;53.068;18.224;2022-09-09T18:54:39;14.60;99.90
19924;DHT22;10124;53.068;18.224;2022-09-09T18:57:13;14.70;1.00
19924;DHT22;10124;53.068;18.224;2022-09-09T18:59:43;15.00;99.90
19924;DHT22;10124;53.068;18.224;2022-09-09T19:02:11;14.20;1.00
19924;DHT22;10124;53.068;18.224;2022-09-09T19:04:39;15.30;1.00
19924;DHT22;10124;53.068;18.224;2022-09-09T19:07:06;14.10;1.00
19924;DHT22;10124;53.068;18.224;2022-09-09T19:09:34;14.60;99.90
19924;DHT22;10124;53.068;18.224;2022-09-09T19:12:03;14.90;1.00
19924;DHT22;10124;53.068;18.224;2022-09-09T19:14:34;14.90;1.00
19924;DHT22;10124;53.068;18.224;2022-09-09T19:17:03;14.60;99.90
19924;DHT22;10124;53.068;18.224;2022-09-09T19:19:32;14.60;1.00
19924;DHT22;10124;53.068;18.224;2022-09-09T19:22:01;14.50;1.00
19924;DHT22;10124;53.068;18.224;2022-09-09T19:24:37;14.70;99.90
19924;DHT22;10124;53.068;18.224;2022-09-09T19:27:05;14.10;1.00
19924;DHT22;10124;53.068;18.224;2022-09-09T19:29:35;15.20;1.00
19924;DHT22;10124;53.068;18.224;2022-09-09T19:32:05;14.80;1.00
19924;DHT22;10124;53.068;18.224;2022-09-09T19:34:53;15.60;1.00
19924;DHT22;10124;53.068;18.224;2022-09-09T19:37:21;15.00;1.00
19924;DHT22;10124;53.068;18.224;2022-09-09T19:39:49;15.30;1.00
19924;DHT22;10124;53.068;18.224;2022-09-09T19:42:17;15.70;1.00
19924;DHT22;10124;53.068;18.224;2022-09-09T19:44:45;15.20;1.00
19924;DHT22;10124;53.068;18.224;2022-09-09T19:47:13;15.50;1.00
19924;DHT22;10124;53.068;18.224;2022-09-09T19:49:42;15.40;1.00
19924;DHT22;10124;53.068;18.224;2022-09-09T19:52:15;15.20;99.90
19924;DHT22;10124;53.068;18.224;2022-09-09T19:54:44;15.00;99.90
19924;DHT22;10124;53.068;18.224;2022-09-09T19:57:13;15.80;99.90
19924;DHT22;10124;53.068;18.224;2022-09-09T19:59:41;15.70;1.00
19924;DHT22;10124;53.068;18.224;2022-09-09T20:02:11;15.30;1.00
19924;DHT22;10124;53.068;18.224;2022-09-09T20:04:40;14.90;76.70
19924;DHT22;10124;53.068;18.224;2022-09-09T20:07:08;15.10;33.20
19924;DHT22;10124;53.068;18.224;2022-09-09T20:09:36;14.90;1.00
19924;DHT22;10124;53.068;18.224;2022-09-09T20:12:05;15.00;1.00
19924;DHT22;10124;53.068;18.224;2022-09-09T20:14:32;14.70;1.00
19924;DHT22;10124;53.068;18.224;2022-09-09T20:17:05;14.70;1.00
19924;DHT22;10124;53.068;18.224;2022-09-09T20:19:34;15.30;1.00
19924;DHT22;10124;53.068;18.224;2022-09-09T20:22:02;14.90;99.90
19924;DHT22;10124;53.068;18.224;2022-09-09T20:24:32;15.70;1.00
19924;DHT22;10124;53.068;18.224;2022-09-09T20:29:30;15.30;57.90
19924;DHT22;10124;53.068;18.224;2022-09-09T20:31:57;15.70;1.00
19924;DHT22;10124;53.068;18.224;2022-09-09T20:34:25;14.90;1.00
19924;DHT22;10124;53.068;18.224;2022-09-09T20:36:54;15.40;50.40
19924;DHT22;10124;53.068;18.224;2022-09-09T20:39:23;15.10;99.90
19924;DHT22;10124;53.068;18.224;2022-09-09T20:41:51;15.40;1.00
19924;DHT22;10124;53.068;18.224;2022-09-09T20:44:21;15.70;99.90
19924;DHT22;10124;53.068;18.224;2022-09-09T20:46:53;15.60;99.90
19924;DHT22;10124;53.068;18.224;2022-09-09T20:49:29;15.50;99.90
19924;DHT22;10124;53.068;18.224;2022-09-09T20:51:56;15.20;1.00
19924;DHT22;10124;53.068;18.224;2022-09-09T20:54:26;14.60;37.20
19924;DHT22;10124;53.068;18.224;2022-09-09T20:56:57;15.40;1.00
19924;DHT22;10124;53.068;18.224;2022-09-09T20:59:28;15.10;99.90
19924;DHT22;10124;53.068;18.224;2022-09-09T21:01:57;14.90;99.90
19924;DHT22;10124;53.068;18.224;2022-09-09T21:04:27;15.40;1.00
19924;DHT22;10124;53.068;18.224;2022-09-09T21:06:55;15.30;1.00
19924;DHT22;10124;53.068;18.224;2022-09-09T21:09:23;15.80;99.90
19924;DHT22;10124;53.068;18.224;2022-09-09T21:11:51;15.20;99.90
19924;DHT22;10124;53.068;18.224;2022-09-09T21:14:20;15.80;99.90
19924;DHT22;10124;53.068;18.224;2022-09-09T21:16:48;15.10;1.00